Time;durP1;ratioP1;P1;durP2;ratioP2;P2;SDS_P1;SDS_P2;PMS_P1;PMS_P2;Temp;Humidity;BMP_temperature;BMP_pressure;BME280_temperature;BME280_humidity;BME280_pressure;Samples;Min_cycle;Max_cycle;Signal;HPM_P1;HPM_P2
2023/10/05 00:01:44;;;;;;;5.75;2.17;;;;;;;;;;5047766;28;20045;-81
2023/10/05 00:04:15;;;;;;;8.70;2.45;;;;;;;;;;5072024;28;20056;-80
2023/10/05 00:06:42;;;;;;;9.02;2.60;;;;;;;;;;5037008;28;20419;-81
2023/10/05 00:09:13;;;;;;;8.32;2.30;;;;;;;;;;5038761;28;20046;-81
2023/10/05 00:11:39;;;;;;;7.10;2.45;;;;;;;;;;5040657;28;20072;-81
2023/10/05 00:14:10;;;;;;;6.85;2.38;;;;;;;;;;5037786;28;20042;-81
2023/10/05 00:16:37;;;;;;;8.77;2.10;;;;;;;;;;5034278;28;20052;-81
2023/10/05 00:19:11;;;;;;;7.68;2.50;;;;;;;;;;5034820;28;20472;-81
2023/10/05 00:21:50;;;;;;;8.60;2.50;;;;;;;;;;5034571;28;20061;-81
2023/10/05 00:24:35;;;;;;;6.55;2.10;;;;;;;;;;5035908;28;20045;-81
2023/10/05 00:27:08;;;;;;;6.53;2.13;;;;;;;;;;5023874;28;20041;-81
2023/10/05 00:29:43;;;;;;;9.30;2.20;;;;;;;;;;5042464;28;20573;-80
2023/10/05 00:32:18;;;;;;;7.70;2.53;;;;;;;;;;5038579;28;20052;-81
2023/10/05 00:34:55;;;;;;;6.43;2.40;;;;;;;;;;5038064;28;20508;-81
2023/10/05 00:37:22;;;;;;;6.82;2.15;;;;;;;;;;5040268;28;20510;-81
2023/10/05 00:39:50;;;;;;;8.38;2.22;;;;;;;;;;5036306;28;20049;-81
2023/10/05 00:42:18;;;;;;;9.43;2.42;;;;;;;;;;5036259;28;20314;-81
2023/10/05 00:44:45;;;;;;;7.18;2.25;;;;;;;;;;5037399;28;20132;-82
2023/10/05 00:47:13;;;;;;;9.70;2.28;;;;;;;;;;5042112;28;20351;-82
2023/10/05 00:52:15;;;;;;;11.38;2.50;;;;;;;;;;5030736;28;20050;-82
2023/10/05 00:54:50;;;;;;;6.70;1.92;;;;;;;;;;5050453;28;20048;-80
2023/10/05 00:57:22;;;;;;;6.00;2.22;;;;;;;;;;5039704;28;20357;-80
2023/10/05 01:02:32;;;;;;;9.20;2.92;;;;;;;;;;5041471;28;20109;-81
2023/10/05 01:05:16;;;;;;;10.15;2.58;;;;;;;;;;5042188;28;20041;-81
2023/10/05 01:07:43;;;;;;;8.13;2.30;;;;;;;;;;5039805;28;20049;-82
2023/10/05 01:12:50;;;;;;;8.68;2.45;;;;;;;;;;5064928;28;20506;-82
2023/10/05 01:15:19;;;;;;;7.35;2.08;;;;;;;;;;5042903;28;20113;-81
2023/10/05 01:17:51;;;;;;;6.25;2.03;;;;;;;;;;5040468;28;20057;-80
2023/10/05 01:22:46;;;;;;;6.05;2.25;;;;;;;;;;5045243;28;20052;-81
2023/10/05 01:25:16;;;;;;;7.18;2.30;;;;;;;;;;5047808;28;20097;-81
2023/10/05 01:27:44;;;;;;;9.55;2.28;;;;;;;;;;5042137;28;20132;-80
2023/10/05 01:30:15;;;;;;;8.95;2.75;;;;;;;;;;5039823;28;20100;-81
2023/10/05 01:32:42;;;;;;;7.03;2.53;;;;;;;;;;5050405;28;20049;-81
2023/10/05 01:35:12;;;;;;;9.80;2.20;;;;;;;;;;5040251;28;20052;-81
2023/10/05 01:37:39;;;;;;;10.38;2.42;;;;;;;;;;5049510;28;20026;-80
2023/10/05 01:40:13;;;;;;;9.20;2.35;;;;;;;;;;5049077;28;20076;-81
2023/10/05 01:42:41;;;;;;;6.38;2.10;;;;;;;;;;5051304;28;20057;-79
2023/10/05 01:45:07;;;;;;;8.43;2.17;;;;;;;;;;5045937;28;20052;-80
2023/10/05 01:47:34;;;;;;;10.32;2.55;;;;;;;;;;5042835;28;20049;-81
2023/10/05 01:50:03;;;;;;;5.93;2.60;;;;;;;;;;5019572;28;20103;-80
2023/10/05 01:52:30;;;;;;;9.95;2.58;;;;;;;;;;5007554;28;20050;-80
2023/10/05 01:54:59;;;;;;;6.53;2.35;;;;;;;;;;5027360;28;20061;-80
2023/10/05 01:57:28;;;;;;;8.00;2.30;;;;;;;;;;5009633;28;20054;-79
2023/10/05 01:59:55;;;;;;;8.18;2.20;;;;;;;;;;5053927;28;20132;-79
2023/10/05 02:02:22;;;;;;;7.07;2.33;;;;;;;;;;5027922;28;20038;-79
2023/10/05 02:04:49;;;;;;;7.32;2.65;;;;;;;;;;5021055;28;20296;-79
2023/10/05 02:07:16;;;;;;;11.35;2.40;;;;;;;;;;5008501;28;20060;-79
2023/10/05 02:09:43;;;;;;;11.45;2.88;;;;;;;;;;5022012;28;20504;-80
2023/10/05 02:12:11;;;;;;;9.63;2.55;;;;;;;;;;4997899;28;20096;-81
2023/10/05 02:14:40;;;;;;;8.15;2.10;;;;;;;;;;5005975;28;20046;-82
2023/10/05 02:17:10;;;;;;;8.10;2.38;;;;;;;;;;5044620;28;20045;-82
2023/10/05 02:19:41;;;;;;;8.57;2.63;;;;;;;;;;5016784;28;20069;-81
2023/10/05 02:22:11;;;;;;;8.73;2.55;;;;;;;;;;5020579;28;20046;-81
2023/10/05 02:24:41;;;;;;;6.68;2.53;;;;;;;;;;5002898;28;20079;-81
2023/10/05 02:27:11;;;;;;;7.93;2.20;;;;;;;;;;5020159;28;20469;-82
2023/10/05 02:29:43;;;;;;;13.57;2.63;;;;;;;;;;5034929;28;20041;-80
2023/10/05 02:32:21;;;;;;;8.90;2.40;;;;;;;;;;4997265;28;20096;-81
2023/10/05 02:34:59;;;;;;;7.47;2.42;;;;;;;;;;5015671;28;20034;-82
2023/10/05 02:37:28;;;;;;;8.20;2.40;;;;;;;;;;4997384;28;20431;-81
2023/10/05 02:39:58;;;;;;;12.75;2.78;;;;;;;;;;5020632;28;20052;-81
2023/10/05 02:42:25;;;;;;;7.03;2.10;;;;;;;;;;5039535;28;20075;-82
2023/10/05 02:44:53;;;;;;;13.23;2.83;;;;;;;;;;5038483;28;20069;-81
2023/10/05 02:47:23;;;;;;;7.05;2.53;;;;;;;;;;5043431;28;20072;-81
2023/10/05 02:49:50;;;;;;;8.35;2.58;;;;;;;;;;5042791;28;20396;-81
2023/10/05 02:52:17;;;;;;;6.70;2.28;;;;;;;;;;5014736;28;20110;-82
2023/10/05 02:54:45;;;;;;;7.95;2.42;;;;;;;;;;5016802;28;20125;-81
2023/10/05 02:57:16;;;;;;;16.05;2.80;;;;;;;;;;5014342;28;20125;-80
2023/10/05 02:59:43;;;;;;;8.63;2.22;;;;;;;;;;5014883;28;20412;-81
2023/10/05 03:02:14;;;;;;;9.40;3.00;;;;;;;;;;5018510;28;20049;-81
2023/10/05 03:04:44;;;;;;;8.88;2.50;;;;;;;;;;5017284;28;20116;-81
2023/10/05 03:07:15;;;;;;;9.57;2.50;;;;;;;;;;5014094;28;21587;-81
2023/10/05 03:09:43;;;;;;;9.52;2.47;;;;;;;;;;5015245;28;20050;-81
2023/10/05 03:12:12;;;;;;;9.73;2.42;;;;;;;;;;5014989;28;20993;-81
2023/10/05 03:14:43;;;;;;;8.77;3.13;;;;;;;;;;5014047;28;20045;-82
2023/10/05 03:17:18;;;;;;;10.25;2.58;;;;;;;;;;5046028;28;20073;-82
2023/10/05 03:19:46;;;;;;;11.10;3.28;;;;;;;;;;5027865;28;20129;-81
2023/10/05 03:22:12;;;;;;;9.88;2.63;;;;;;;;;;5039944;28;20399;-82
2023/10/05 03:24:44;;;;;;;9.80;2.53;;;;;;;;;;5017903;28;20825;-80
2023/10/05 03:27:12;;;;;;;11.27;3.42;;;;;;;;;;5024085;28;20041;-80
2023/10/05 03:29:42;;;;;;;9.88;2.47;;;;;;;;;;5015185;28;20124;-81
2023/10/05 03:34:38;;;;;;;10.88;3.35;;;;;;;;;;5029134;28;20068;-81
2023/10/05 03:37:12;;;;;;;9.07;2.63;;;;;;;;;;5020184;28;20495;-82
2023/10/05 03:39:54;;;;;;;7.85;2.60;;;;;;;;;;5036782;28;20045;-80
2023/10/05 03:42:22;;;;;;;8.95;3.00;;;;;;;;;;5019873;28;20374;-80
2023/10/05 03:45:00;;;;;;;9.30;2.97;;;;;;;;;;5040707;28;20121;-82
2023/10/05 03:47:27;;;;;;;11.68;3.10;;;;;;;;;;5030790;28;20044;-82
2023/10/05 03:49:55;;;;;;;9.15;2.97;;;;;;;;;;5022223;28;20030;-81
2023/10/05 03:52:23;;;;;;;8.80;2.80;;;;;;;;;;5020841;28;20053;-80
2023/10/05 03:54:52;;;;;;;7.05;2.83;;;;;;;;;;5025949;28;20048;-80
2023/10/05 03:57:19;;;;;;;8.90;3.00;;;;;;;;;;5022896;28;20108;-81
2023/10/05 03:59:46;;;;;;;8.38;3.03;;;;;;;;;;5022007;28;20050;-81
2023/10/05 04:02:13;;;;;;;9.73;2.95;;;;;;;;;;5020268;28;20045;-81
2023/10/05 04:04:42;;;;;;;8.25;2.85;;;;;;;;;;5018649;28;20500;-82
2023/10/05 04:07:09;;;;;;;9.70;2.53;;;;;;;;;;5020469;28;20049;-80
2023/10/05 04:09:36;;;;;;;11.35;3.58;;;;;;;;;;5019653;28;20061;-81
2023/10/05 04:12:05;;;;;;;12.90;3.30;;;;;;;;;;5021414;28;20061;-81
2023/10/05 04:14:34;;;;;;;12.98;3.08;;;;;;;;;;5029495;28;20105;-82
2023/10/05 04:17:07;;;;;;;9.82;3.15;;;;;;;;;;5025430;28;20056;-80
2023/10/05 04:19:34;;;;;;;10.55;3.38;;;;;;;;;;5021163;28;20128;-80
2023/10/05 04:22:01;;;;;;;12.18;3.05;;;;;;;;;;5046928;28;20105;-80
2023/10/05 04:24:28;;;;;;;11.27;3.00;;;;;;;;;;5016912;28;20113;-81
2023/10/05 04:26:55;;;;;;;8.27;2.92;;;;;;;;;;5024901;28;20057;-80
2023/10/05 04:29:22;;;;;;;11.18;3.00;;;;;;;;;;5009334;28;20054;-80
2023/10/05 04:31:48;;;;;;;9.90;2.92;;;;;;;;;;5022700;28;20137;-79
2023/10/05 04:34:18;;;;;;;10.90;2.95;;;;;;;;;;5024592;28;20058;-81
2023/10/05 04:36:46;;;;;;;13.52;3.10;;;;;;;;;;5023405;28;20053;-81
2023/10/05 04:39:21;;;;;;;9.95;3.00;;;;;;;;;;5016653;28;20053;-82
2023/10/05 04:41:51;;;;;;;11.02;3.13;;;;;;;;;;5011193;28;20041;-80
2023/10/05 04:44:17;;;;;;;10.90;2.97;;;;;;;;;;5015518;28;20089;-80
2023/10/05 04:46:48;;;;;;;12.85;2.88;;;;;;;;;;5008074;28;20053;-80
2023/10/05 04:49:16;;;;;;;11.95;3.22;;;;;;;;;;5009949;28;20052;-81
2023/10/05 04:51:43;;;;;;;9.98;3.15;;;;;;;;;;4999336;28;20045;-80
2023/10/05 04:54:11;;;;;;;11.32;3.00;;;;;;;;;;5038790;28;20045;-81
2023/10/05 04:56:53;;;;;;;10.15;3.15;;;;;;;;;;5037283;28;20041;-81
2023/10/05 05:02:12;;;;;;;10.10;3.17;;;;;;;;;;5021467;28;20372;-81
2023/10/05 05:04:52;;;;;;;13.45;3.33;;;;;;;;;;5021336;28;20195;-80
2023/10/05 05:07:21;;;;;;;12.00;2.90;;;;;;;;;;5020466;28;20359;-81
2023/10/05 05:09:50;;;;;;;9.73;3.15;;;;;;;;;;5020201;28;20034;-81
2023/10/05 05:12:24;;;;;;;11.00;3.60;;;;;;;;;;5026793;28;20080;-80
2023/10/05 05:14:53;;;;;;;9.30;2.95;;;;;;;;;;5042532;28;20358;-80
2023/10/05 05:17:23;;;;;;;9.48;3.42;;;;;;;;;;5024111;28;20042;-80
2023/10/05 05:19:53;;;;;;;10.27;2.80;;;;;;;;;;5018665;28;20554;-80
2023/10/05 05:22:19;;;;;;;7.63;2.70;;;;;;;;;;5014392;28;20053;-79
2023/10/05 05:24:47;;;;;;;8.30;2.92;;;;;;;;;;5012331;28;20042;-81
2023/10/05 05:29:44;;;;;;;8.85;2.95;;;;;;;;;;5020216;28;20457;-81
2023/10/05 05:32:11;;;;;;;9.18;3.03;;;;;;;;;;5008797;28;20049;-82
2023/10/05 05:34:38;;;;;;;12.68;3.13;;;;;;;;;;5016314;28;20559;-82
2023/10/05 05:37:04;;;;;;;8.90;3.25;;;;;;;;;;5015191;28;20042;-82
2023/10/05 05:39:39;;;;;;;13.50;2.80;;;;;;;;;;5014818;28;20041;-83
2023/10/05 05:42:13;;;;;;;8.75;2.78;;;;;;;;;;5021667;28;20144;-80
2023/10/05 05:44:40;;;;;;;10.68;3.33;;;;;;;;;;5015581;28;20038;-81
2023/10/05 05:47:11;;;;;;;13.25;2.95;;;;;;;;;;5018362;28;20132;-82
2023/10/05 05:49:40;;;;;;;12.98;3.15;;;;;;;;;;5018743;28;20080;-82
2023/10/05 05:52:14;;;;;;;11.63;3.25;;;;;;;;;;5025092;28;20504;-79
2023/10/05 05:54:42;;;;;;;10.55;3.28;;;;;;;;;;5050660;28;20050;-78
2023/10/05 05:57:11;;;;;;;9.18;2.95;;;;;;;;;;5026637;28;20049;-79
2023/10/05 05:59:39;;;;;;;6.20;2.45;;;;;;;;;;5027522;28;20069;-80
2023/10/05 06:02:07;;;;;;;8.27;2.55;;;;;;;;;;5025680;28;20053;-80
2023/10/05 06:04:35;;;;;;;12.77;3.10;;;;;;;;;;5019625;28;20057;-80
2023/10/05 06:07:11;;;;;;;10.52;2.78;;;;;;;;;;5019873;28;20050;-81
2023/10/05 06:09:39;;;;;;;11.93;3.65;;;;;;;;;;5016775;28;20124;-80
2023/10/05 06:12:06;;;;;;;9.68;2.92;;;;;;;;;;5021030;28;20034;-81
2023/10/05 06:14:34;;;;;;;11.18;2.60;;;;;;;;;;5022365;28;20057;-80
2023/10/05 06:17:01;;;;;;;10.20;3.55;;;;;;;;;;5017614;28;20042;-80
2023/10/05 06:19:28;;;;;;;13.10;3.00;;;;;;;;;;5023200;28;20457;-81
2023/10/05 06:21:54;;;;;;;8.15;2.55;;;;;;;;;;5035332;28;20091;-80
2023/10/05 06:24:21;;;;;;;9.18;2.70;;;;;;;;;;5050560;28;20045;-81
2023/10/05 06:26:48;;;;;;;12.20;2.58;;;;;;;;;;5012754;28;20156;-80
2023/10/05 06:29:14;;;;;;;10.80;3.10;;;;;;;;;;5024494;28;20061;-80
2023/10/05 06:31:43;;;;;;;10.13;3.05;;;;;;;;;;5016914;28;20037;-81
2023/10/05 06:34:09;;;;;;;9.80;2.53;;;;;;;;;;5019875;28;20045;-81
2023/10/05 06:36:40;;;;;;;11.10;2.65;;;;;;;;;;5019801;28;20037;-81
2023/10/05 06:39:12;;;;;;;11.48;2.90;;;;;;;;;;5020061;28;20038;-81
2023/10/05 06:41:47;;;;;;;8.27;2.83;;;;;;;;;;5019416;28;20048;-81
2023/10/05 06:44:23;;;;;;;10.48;2.72;;;;;;;;;;5017248;28;20049;-81
2023/10/05 06:46:50;;;;;;;10.45;2.92;;;;;;;;;;5048487;28;20042;-82
2023/10/05 06:49:16;;;;;;;7.43;2.70;;;;;;;;;;5017643;28;20109;-81
2023/10/05 06:51:45;;;;;;;11.85;2.88;;;;;;;;;;5019718;28;20073;-79
2023/10/05 06:54:15;;;;;;;8.57;3.13;;;;;;;;;;5021259;28;20092;-79
2023/10/05 06:56:48;;;;;;;10.73;2.88;;;;;;;;;;5032614;28;20415;-82
2023/10/05 06:59:15;;;;;;;11.93;2.75;;;;;;;;;;5030899;28;20093;-82
2023/10/05 07:01:42;;;;;;;15.25;3.42;;;;;;;;;;5027655;28;20040;-82
2023/10/05 07:04:09;;;;;;;8.57;2.55;;;;;;;;;;5011053;28;20046;-80
2023/10/05 07:06:36;;;;;;;10.38;2.53;;;;;;;;;;5023582;28;20073;-81
2023/10/05 07:09:03;;;;;;;11.20;3.03;;;;;;;;;;5026015;28;20528;-81
2023/10/05 07:11:30;;;;;;;9.00;2.88;;;;;;;;;;5025654;28;20042;-82
2023/10/05 07:13:57;;;;;;;11.52;2.80;;;;;;;;;;5026030;28;20044;-82
2023/10/05 07:16:24;;;;;;;9.50;3.20;;;;;;;;;;5027782;28;20121;-82
2023/10/05 07:18:51;;;;;;;15.30;3.00;;;;;;;;;;5030611;28;20040;-81
2023/10/05 07:21:18;;;;;;;9.82;2.88;;;;;;;;;;5033293;28;20054;-81
2023/10/05 07:23:45;;;;;;;6.82;2.60;;;;;;;;;;5029966;28;20053;-81
2023/10/05 07:26:14;;;;;;;11.13;2.80;;;;;;;;;;5023706;28;20064;-83
2023/10/05 07:28:41;;;;;;;10.48;2.90;;;;;;;;;;5028391;28;20056;-81
2023/10/05 07:31:09;;;;;;;12.32;2.78;;;;;;;;;;5026042;28;20076;-81
2023/10/05 07:33:36;;;;;;;8.98;2.55;;;;;;;;;;5048426;28;20077;-82
2023/10/05 07:36:03;;;;;;;10.60;2.78;;;;;;;;;;5026764;28;20045;-82
2023/10/05 07:38:29;;;;;;;9.50;2.47;;;;;;;;;;5040277;28;20046;-82
2023/10/05 07:40:56;;;;;;;8.02;2.67;;;;;;;;;;5032531;28;20065;-82
2023/10/05 07:43:23;;;;;;;9.85;2.60;;;;;;;;;;5026813;28;20062;-81
2023/10/05 07:45:50;;;;;;;13.50;2.58;;;;;;;;;;5015825;28;20049;-80
2023/10/05 07:48:19;;;;;;;9.30;2.92;;;;;;;;;;5042171;28;20053;-81
2023/10/05 07:50:49;;;;;;;12.38;2.90;;;;;;;;;;5044576;28;20065;-82
2023/10/05 07:53:16;;;;;;;11.23;2.88;;;;;;;;;;5045337;28;20053;-81
2023/10/05 07:55:45;;;;;;;8.50;2.63;;;;;;;;;;5043751;28;20103;-81
2023/10/05 07:58:12;;;;;;;6.55;2.28;;;;;;;;;;5041212;28;20124;-83
2023/10/05 08:00:39;;;;;;;12.68;2.45;;;;;;;;;;5038933;28;20392;-81
2023/10/05 08:03:06;;;;;;;10.38;2.65;;;;;;;;;;5038314;28;20041;-82
2023/10/05 08:05:33;;;;;;;12.27;2.78;;;;;;;;;;5039850;28;20041;-81
2023/10/05 08:08:02;;;;;;;8.68;2.28;;;;;;;;;;5029213;28;20034;-80
2023/10/05 08:10:28;;;;;;;7.68;2.40;;;;;;;;;;5020548;28;20107;-82
2023/10/05 08:12:55;;;;;;;8.50;2.13;;;;;;;;;;5020424;28;20053;-81
2023/10/05 08:15:22;;;;;;;9.75;2.47;;;;;;;;;;5033369;28;20033;-80
2023/10/05 08:17:49;;;;;;;10.15;2.65;;;;;;;;;;5039907;28;20041;-81
2023/10/05 08:20:20;;;;;;;7.20;2.05;;;;;;;;;;5042354;28;20080;-81
2023/10/05 08:22:56;;;;;;;11.18;2.70;;;;;;;;;;5026488;28;20057;-83
2023/10/05 08:25:23;;;;;;;9.18;2.30;;;;;;;;;;5014845;28;20133;-82
2023/10/05 08:27:51;;;;;;;5.78;1.73;;;;;;;;;;5013753;28;20065;-80
2023/10/05 08:30:18;;;;;;;7.13;1.77;;;;;;;;;;5012548;28;20508;-81
2023/10/05 08:32:47;;;;;;;8.98;2.17;;;;;;;;;;5018786;28;20114;-81
2023/10/05 08:35:17;;;;;;;7.35;1.95;;;;;;;;;;5000468;28;20045;-82
2023/10/05 08:37:50;;;;;;;6.72;2.00;;;;;;;;;;5017442;28;20042;-80
2023/10/05 08:43:10;;;;;;;10.80;2.13;;;;;;;;;;5035036;28;20053;-80
2023/10/05 08:45:46;;;;;;;8.75;1.90;;;;;;;;;;5013964;28;20153;-82
2023/10/05 08:48:19;;;;;;;9.25;2.17;;;;;;;;;;5036707;28;20058;-81
2023/10/05 08:50:49;;;;;;;6.72;1.90;;;;;;;;;;5011769;28;20403;-81
2023/10/05 08:53:19;;;;;;;10.27;2.25;;;;;;;;;;5015408;28;20062;-81
2023/10/05 08:55:46;;;;;;;7.90;2.00;;;;;;;;;;5015090;28;20586;-81
2023/10/05 08:58:18;;;;;;;5.15;1.83;;;;;;;;;;5018625;28;20046;-80
2023/10/05 09:00:45;;;;;;;4.38;1.80;;;;;;;;;;5018460;28;20053;-80
2023/10/05 09:03:30;;;;;;;7.85;1.92;;;;;;;;;;5022556;28;20056;-79
2023/10/05 09:06:12;;;;;;;7.30;1.73;;;;;;;;;;5029993;28;20288;-80
2023/10/05 09:08:51;;;;;;;8.30;2.05;;;;;;;;;;5024481;28;20109;-80
2023/10/05 09:11:27;;;;;;;5.78;2.05;;;;;;;;;;5026035;28;20744;-80
2023/10/05 09:13:53;;;;;;;6.97;2.00;;;;;;;;;;5027202;28;20072;-80
2023/10/05 09:16:30;;;;;;;6.47;1.70;;;;;;;;;;5030547;28;20057;-80
2023/10/05 09:19:00;;;;;;;6.20;1.88;;;;;;;;;;5013395;28;20046;-80
2023/10/05 09:21:54;;;;;;;7.07;1.83;;;;;;;;;;5036706;28;20053;-81
2023/10/05 09:24:24;;;;;;;5.75;1.58;;;;;;;;;;5017855;28;20127;-82
2023/10/05 09:26:52;;;;;;;5.10;1.80;;;;;;;;;;5035389;28;20669;-79
2023/10/05 09:29:23;;;;;;;7.63;1.90;;;;;;;;;;5045345;28;21774;-80
2023/10/05 09:31:56;;;;;;;4.13;1.33;;;;;;;;;;5044895;28;20597;-81
2023/10/05 09:34:35;;;;;;;5.88;1.55;;;;;;;;;;5041162;28;20123;-81
2023/10/05 09:37:05;;;;;;;6.40;1.90;;;;;;;;;;5050492;28;20497;-81
2023/10/05 09:39:43;;;;;;;5.85;1.55;;;;;;;;;;5051046;28;20049;-81
2023/10/05 09:42:17;;;;;;;6.03;1.60;;;;;;;;;;5043442;28;20045;-81
2023/10/05 09:44:51;;;;;;;5.97;1.42;;;;;;;;;;5036079;28;20053;-80
2023/10/05 09:47:19;;;;;;;4.07;1.48;;;;;;;;;;5041662;28;20056;-80
2023/10/05 09:49:46;;;;;;;7.90;1.80;;;;;;;;;;5048613;28;20060;-79
2023/10/05 09:52:13;;;;;;;4.35;1.40;;;;;;;;;;5051603;28;20037;-76
2023/10/05 09:54:41;;;;;;;6.43;1.65;;;;;;;;;;5056095;28;20045;-79
2023/10/05 09:57:12;;;;;;;6.25;1.70;;;;;;;;;;5059850;28;20141;-77
2023/10/05 09:59:41;;;;;;;6.38;1.63;;;;;;;;;;5033960;28;20072;-79
2023/10/05 10:02:16;;;;;;;5.65;1.33;;;;;;;;;;5052189;28;20037;-77
2023/10/05 10:04:45;;;;;;;6.10;1.50;;;;;;;;;;5059071;28;20084;-78
2023/10/05 10:07:22;;;;;;;4.93;1.35;;;;;;;;;;5032566;28;20447;-75
2023/10/05 10:09:53;;;;;;;4.28;1.83;;;;;;;;;;5038757;28;20041;-74
2023/10/05 10:12:31;;;;;;;4.80;1.83;;;;;;;;;;5033142;28;20037;-78
2023/10/05 10:14:59;;;;;;;4.93;1.65;;;;;;;;;;5040069;28;20114;-79
2023/10/05 10:17:33;;;;;;;4.88;1.67;;;;;;;;;;5039222;28;20142;-79
2023/10/05 10:20:34;;;;;;;3.83;1.38;;;;;;;;;;5025919;28;21582;-78
2023/10/05 10:23:08;;;;;;;5.55;1.50;;;;;;;;;;5024350;28;20167;-78
2023/10/05 10:25:39;;;;;;;4.68;1.80;;;;;;;;;;5018947;28;20050;-78
2023/10/05 10:28:15;;;;;;;5.45;1.70;;;;;;;;;;5021815;28;20034;-79
2023/10/05 10:31:07;;;;;;;3.97;1.60;;;;;;;;;;5015620;28;20409;-79
2023/10/05 10:33:35;;;;;;;6.15;1.25;;;;;;;;;;5010269;28;20678;-79
2023/10/05 10:36:06;;;;;;;4.97;1.40;;;;;;;;;;5012687;28;20050;-79
2023/10/05 10:38:35;;;;;;;8.75;1.50;;;;;;;;;;5015937;28;20049;-79
2023/10/05 10:41:07;;;;;;;4.78;1.70;;;;;;;;;;5016487;28;20068;-82
2023/10/05 10:43:34;;;;;;;7.05;1.67;;;;;;;;;;5015914;28;20061;-77
2023/10/05 10:46:07;;;;;;;8.43;1.98;;;;;;;;;;5014001;28;20048;-78
2023/10/05 10:48:52;;;;;;;2.65;1.20;;;;;;;;;;5011262;28;20064;-80
2023/10/05 10:51:21;;;;;;;4.65;1.60;;;;;;;;;;5009204;28;20049;-77
2023/10/05 10:53:55;;;;;;;3.50;1.15;;;;;;;;;;5011564;28;20042;-80
2023/10/05 10:56:27;;;;;;;1.85;0.85;;;;;;;;;;5010538;28;20054;-80
2023/10/05 10:59:11;;;;;;;4.80;1.23;;;;;;;;;;5009980;28;20062;-78
2023/10/05 11:01:42;;;;;;;3.95;1.20;;;;;;;;;;5040126;28;20188;-78
2023/10/05 11:04:26;;;;;;;4.30;1.63;;;;;;;;;;5013357;28;20042;-83
2023/10/05 11:06:59;;;;;;;3.97;1.45;;;;;;;;;;5011865;28;20065;-82
2023/10/05 11:09:30;;;;;;;5.75;1.50;;;;;;;;;;4995405;28;20046;-82
2023/10/05 11:12:08;;;;;;;3.05;1.27;;;;;;;;;;5013004;28;20042;-80
2023/10/05 11:14:35;;;;;;;3.38;1.38;;;;;;;;;;5012402;28;20307;-81
2023/10/05 11:17:11;;;;;;;4.90;1.30;;;;;;;;;;5012164;28;20042;-82
2023/10/05 11:19:38;;;;;;;8.27;1.55;;;;;;;;;;5017115;28;20730;-81
2023/10/05 11:22:10;;;;;;;4.75;1.63;;;;;;;;;;5013506;28;20053;-82
2023/10/05 11:24:59;;;;;;;4.55;1.50;;;;;;;;;;5018405;28;20046;-80
2023/10/05 11:27:26;;;;;;;4.40;1.45;;;;;;;;;;5010406;28;20125;-83
2023/10/05 11:29:55;;;;;;;4.72;1.50;;;;;;;;;;5012161;28;20108;-80
2023/10/05 11:32:30;;;;;;;4.53;1.38;;;;;;;;;;5013808;28;20092;-80
2023/10/05 11:35:28;;;;;;;7.70;1.48;;;;;;;;;;5036960;28;20422;-79
2023/10/05 11:37:58;;;;;;;6.82;1.90;;;;;;;;;;5019996;28;20097;-76
2023/10/05 11:40:42;;;;;;;3.72;1.20;;;;;;;;;;5024733;28;20079;-76
2023/10/05 11:43:13;;;;;;;3.35;1.02;;;;;;;;;;5012382;28;20479;-75
2023/10/05 11:45:55;;;;;;;5.75;1.48;;;;;;;;;;5010320;28;20034;-77
2023/10/05 11:48:27;;;;;;;4.47;1.15;;;;;;;;;;5036665;28;20103;-80
2023/10/05 11:50:53;;;;;;;2.90;1.10;;;;;;;;;;5033564;28;20079;-80
2023/10/05 11:53:24;;;;;;;3.75;1.30;;;;;;;;;;5031607;28;20471;-79
2023/10/05 11:55:51;;;;;;;3.42;1.17;;;;;;;;;;5040357;28;20072;-80
2023/10/05 11:58:22;;;;;;;5.07;1.33;;;;;;;;;;5040906;28;20076;-80
2023/10/05 12:00:48;;;;;;;4.47;1.30;;;;;;;;;;5034825;28;20038;-81
2023/10/05 12:03:16;;;;;;;8.77;1.50;;;;;;;;;;5032631;28;20049;-78
2023/10/05 12:05:43;;;;;;;7.28;1.52;;;;;;;;;;5033217;28;20307;-82
2023/10/05 12:08:12;;;;;;;4.68;1.10;;;;;;;;;;5054253;28;20041;-81
2023/10/05 12:10:39;;;;;;;3.42;1.10;;;;;;;;;;5032778;28;20116;-80
2023/10/05 12:13:07;;;;;;;4.60;1.15;;;;;;;;;;5032392;28;20040;-80
2023/10/05 12:15:35;;;;;;;4.75;1.33;;;;;;;;;;5031487;28;20048;-81
2023/10/05 12:18:06;;;;;;;5.13;1.55;;;;;;;;;;5032274;28;20126;-80
2023/10/05 12:20:33;;;;;;;5.55;1.50;;;;;;;;;;5033605;28;20109;-81
2023/10/05 12:23:00;;;;;;;5.03;1.33;;;;;;;;;;5022833;28;20083;-80
2023/10/05 12:25:27;;;;;;;3.70;1.38;;;;;;;;;;5015759;28;20045;-82
2023/10/05 12:27:55;;;;;;;4.75;1.00;;;;;;;;;;5012478;28;20080;-80
2023/10/05 12:30:22;;;;;;;2.80;1.10;;;;;;;;;;5012516;28;20127;-78
2023/10/05 12:32:51;;;;;;;3.80;1.05;;;;;;;;;;5011748;28;20073;-81
2023/10/05 12:35:18;;;;;;;4.57;1.10;;;;;;;;;;5012247;28;20073;-81
2023/10/05 12:37:46;;;;;;;4.75;1.50;;;;;;;;;;5012514;28;20145;-81
2023/10/05 12:40:20;;;;;;;4.10;1.38;;;;;;;;;;5007911;28;20085;-79
2023/10/05 12:42:54;;;;;;;6.57;1.42;;;;;;;;;;5012334;28;20049;-81
2023/10/05 12:45:41;;;;;;;5.13;1.20;;;;;;;;;;5012468;28;20284;-79
2023/10/05 12:48:08;;;;;;;3.80;1.15;;;;;;;;;;5017465;28;20057;-80
2023/10/05 12:50:35;;;;;;;4.30;1.45;;;;;;;;;;5019405;28;20046;-78
2023/10/05 12:53:03;;;;;;;7.93;1.20;;;;;;;;;;5023651;28;20651;-80
2023/10/05 12:55:30;;;;;;;4.93;1.67;;;;;;;;;;5014387;28;20053;-82
2023/10/05 12:57:57;;;;;;;4.03;0.93;;;;;;;;;;5013547;28;20060;-81
2023/10/05 13:00:31;;;;;;;4.30;1.10;;;;;;;;;;5027664;28;20546;-81
2023/10/05 13:03:00;;;;;;;5.20;1.20;;;;;;;;;;5039435;28;20099;-80
2023/10/05 13:05:43;;;;;;;3.47;1.45;;;;;;;;;;5042246;28;20037;-78
2023/10/05 13:08:16;;;;;;;4.40;1.40;;;;;;;;;;5061053;28;20049;-79
2023/10/05 13:10:44;;;;;;;2.92;1.30;;;;;;;;;;5022625;28;21728;-79
2023/10/05 13:13:17;;;;;;;4.80;1.20;;;;;;;;;;5034859;28;21450;-78
2023/10/05 13:15:45;;;;;;;2.45;1.05;;;;;;;;;;5031668;28;20464;-81
2023/10/05 13:18:17;;;;;;;6.90;1.30;;;;;;;;;;5032566;28;20320;-81
2023/10/05 13:20:50;;;;;;;4.40;1.30;;;;;;;;;;5022625;28;21901;-81
2023/10/05 13:23:21;;;;;;;4.38;1.50;;;;;;;;;;5010304;28;20694;-79
2023/10/05 13:25:51;;;;;;;3.90;1.33;;;;;;;;;;5022545;28;20046;-79
2023/10/05 13:28:18;;;;;;;3.40;1.33;;;;;;;;;;5013236;28;20057;-80
2023/10/05 13:30:54;;;;;;;2.90;1.15;;;;;;;;;;5012892;28;20042;-81
2023/10/05 13:33:21;;;;;;;6.95;1.83;;;;;;;;;;5009113;28;20066;-81
2023/10/05 13:35:50;;;;;;;5.47;1.45;;;;;;;;;;5013244;28;20061;-80
2023/10/05 13:38:19;;;;;;;4.88;1.52;;;;;;;;;;5014796;28;20068;-80
2023/10/05 13:40:58;;;;;;;5.55;1.30;;;;;;;;;;5008719;28;21372;-80
2023/10/05 13:43:30;;;;;;;4.35;1.50;;;;;;;;;;5020574;28;20453;-81
2023/10/05 13:45:59;;;;;;;5.00;1.60;;;;;;;;;;5011988;28;20136;-81
2023/10/05 13:48:29;;;;;;;5.00;1.20;;;;;;;;;;5017927;28;20054;-81
2023/10/05 13:50:57;;;;;;;6.15;1.23;;;;;;;;;;5027242;28;20056;-79
2023/10/05 13:53:24;;;;;;;5.13;1.45;;;;;;;;;;5030625;28;20061;-79
2023/10/05 13:55:53;;;;;;;5.45;1.50;;;;;;;;;;5031569;28;20038;-78
2023/10/05 13:58:20;;;;;;;5.53;1.60;;;;;;;;;;5031733;28;20254;-79
2023/10/05 14:00:50;;;;;;;4.80;1.58;;;;;;;;;;5025447;28;20385;-79
2023/10/05 14:03:16;;;;;;;6.93;1.55;;;;;;;;;;5018049;28;20539;-81
2023/10/05 14:05:51;;;;;;;6.70;1.48;;;;;;;;;;5017115;28;20112;-81
2023/10/05 14:08:19;;;;;;;6.45;1.60;;;;;;;;;;5013311;28;20483;-80
2023/10/05 14:10:46;;;;;;;6.60;1.35;;;;;;;;;;5015992;28;20065;-79
2023/10/05 14:13:16;;;;;;;6.18;1.50;;;;;;;;;;5021899;28;20072;-79
2023/10/05 14:15:44;;;;;;;7.93;1.73;;;;;;;;;;5020913;28;20125;-79
2023/10/05 14:18:12;;;;;;;8.57;1.60;;;;;;;;;;5018229;28;20069;-79
2023/10/05 14:20:38;;;;;;;6.97;1.90;;;;;;;;;;5017582;28;20053;-79
2023/10/05 14:23:06;;;;;;;5.15;1.38;;;;;;;;;;5025783;28;20110;-76
2023/10/05 14:25:33;;;;;;;5.40;1.50;;;;;;;;;;5031428;28;20050;-80
2023/10/05 14:28:01;;;;;;;3.95;1.35;;;;;;;;;;5044882;28;20068;-80
2023/10/05 14:30:29;;;;;;;3.58;1.60;;;;;;;;;;5015615;28;20050;-80
2023/10/05 14:32:55;;;;;;;6.57;1.70;;;;;;;;;;5013197;28;20133;-80
2023/10/05 14:35:25;;;;;;;4.35;1.30;;;;;;;;;;5023826;28;20053;-78
2023/10/05 14:37:55;;;;;;;5.38;1.90;;;;;;;;;;5021823;28;20979;-81
2023/10/05 14:40:21;;;;;;;6.72;1.52;;;;;;;;;;5021607;28;20065;-80
2023/10/05 14:42:49;;;;;;;5.95;1.85;;;;;;;;;;5018496;28;20614;-81
2023/10/05 14:45:18;;;;;;;5.43;1.70;;;;;;;;;;5012380;28;20416;-81
2023/10/05 14:47:45;;;;;;;5.65;1.65;;;;;;;;;;5020429;28;20057;-80
2023/10/05 14:50:12;;;;;;;8.45;1.75;;;;;;;;;;5019962;28;20052;-80
2023/10/05 14:52:42;;;;;;;3.20;1.35;;;;;;;;;;5018955;28;20045;-79
2023/10/05 14:55:09;;;;;;;5.32;1.60;;;;;;;;;;5017390;28;20054;-80
2023/10/05 14:57:37;;;;;;;6.55;1.50;;;;;;;;;;5014250;28;20104;-81
2023/10/05 15:00:10;;;;;;;5.85;1.50;;;;;;;;;;4998581;28;20041;-80
2023/10/05 15:02:38;;;;;;;8.00;2.28;;;;;;;;;;5013958;28;20558;-80
2023/10/05 15:05:07;;;;;;;5.30;1.40;;;;;;;;;;5013661;28;20071;-80
2023/10/05 15:07:36;;;;;;;4.93;1.58;;;;;;;;;;5016084;28;20038;-81
2023/10/05 15:10:09;;;;;;;6.20;1.65;;;;;;;;;;5004810;28;20097;-81
2023/10/05 15:12:39;;;;;;;5.38;1.42;;;;;;;;;;5017703;28;20531;-80
2023/10/05 15:15:09;;;;;;;4.50;1.77;;;;;;;;;;5014001;28;20061;-81
2023/10/05 15:17:36;;;;;;;4.13;1.13;;;;;;;;;;5014895;28;20079;-81
2023/10/05 15:20:10;;;;;;;5.13;1.75;;;;;;;;;;5017262;28;20045;-81